Tropical Cyclones
[Index]
Main Index Home Page Stock Weather Photos Extreme Storms Discussion Storm News and Storm Chasing Reports Tropical Cyclones / Hurricanes / Typhoons Weather Data and Links Wild Fires / Bushfires Weather Observation Techniques Weather Picture Catalogue Tornado Pictures and Reports Stock Video Footage and DVDs for sale
Season 2001-2002 Tropical Cyclone ERROL Track Map
Season 2001-2002 Summaries: [BoM-AU] [JTWC-AU] [JTWC-SIO] [JTWC-SPAC] [JTWC-SH]
<<- Previous TC | BoM 2001-2002 Season | Next TC ->>

click for intensity scale information  Lat/long Grid: Show Hide

 Date Labels: Show Hide

Bureau of Meteorology Tropical Cyclone Data

Name: ERROL
Number: 859 / 200102_09

08 May 2002 03:00 UTC to 14 May 2002 00:00 UTC

    date/time    lat    long    hPa   cat  kts
2002-05-08 03    5.3    97.3   1005         20          
2002-05-08 06    5.5    97.2   1005         20          
2002-05-08 12    5.7    97.3   1002         25          
2002-05-08 18    5.8    97.4   1000         30          
2002-05-09 00    6.0    97.5    995    1    35          
2002-05-09 06    6.6    97.6    995    1    35          
2002-05-09 12    6.7    97.3    995    1    35          
2002-05-09 18    6.7    97.1    995    1    35          
2002-05-10 00    6.5    97.3    998         30          
2002-05-10 06    6.4    97.6   1000         30          
2002-05-10 12    6.6    97.9   1000         30          
2002-05-10 18    6.8    97.7   1000         30          
2002-05-11 00    6.4    97.2   1000         30          
2002-05-11 06    6.2    96.8    998         30          
2002-05-11 12    6.2    96.3   1002         25          
2002-05-11 18    6.3    96.0   1002         25          
2002-05-12 00    6.3    96.2   1002         25          
2002-05-12 06    6.2    95.7   1002         25          
2002-05-12 12    7.0    95.4   1002         25          
2002-05-12 18    7.9    95.4   1002         25          
2002-05-13 00    8.5    95.6   1002         25          
2002-05-13 06    8.8    95.6   1002         25          
2002-05-13 12    9.0    96.0   1002         25          
2002-05-13 18    9.2    96.3   1005         20          
2002-05-14 00    9.6    96.6   1005         20          
Winds are 10-min average.

Tropical cyclone tracks developed by Michael Bath using data from the Bureau of Meteorology and Google Maps.


[Australian Severe Weather index] [Copyright Notice] [Email Contacts] [Search This Site] [Privacy Policy]
Document: tropical_cyclone_errol.htm Updated: 29 June 2017